Time;durP1;ratioP1;P1;durP2;ratioP2;P2;SDS_P1;SDS_P2;PMS_P1;PMS_P2;Temp;Humidity;BMP_temperature;BMP_pressure;BME280_temperature;BME280_humidity;BME280_pressure;Samples;Min_cycle;Max_cycle;Signal;HPM_P1;HPM_P2
2021/12/17 00:00:00;;;;;;;18.17;12.27;;;;;;;3.46;100.00;100275.22;5090336;28;20211;-64
2021/12/17 00:05:14;;;;;;;18.53;12.70;;;;;;;3.45;100.00;100275.22;5080105;28;20593;-64
2021/12/17 00:07:40;;;;;;;15.00;11.73;;;;;;;3.51;100.00;100285.66;5090234;28;20250;-64
2021/12/17 00:10:10;;;;;;;15.40;11.43;;;;;;;3.56;100.00;100278.66;5089926;28;20241;-63
2021/12/17 00:12:36;;;;;;;13.83;10.23;;;;;;;3.60;100.00;100270.75;5086336;28;20222;-64
2021/12/17 00:15:05;;;;;;;13.73;10.10;;;;;;;3.66;100.00;100269.88;5090077;28;20211;-64
2021/12/17 00:17:34;;;;;;;15.20;10.57;;;;;;;3.70;100.00;100272.44;5088319;28;20215;-64
2021/12/17 00:20:31;;;;;;;12.90;10.47;;;;;;;3.75;100.00;100275.00;5089951;28;20234;-64
2021/12/17 00:50:57;;;;;;;18.53;12.07;;;;;;;4.04;100.00;100244.22;5080722;28;20302;-64
2021/12/17 00:53:26;;;;;;;19.30;12.43;;;;;;;4.05;100.00;100240.72;5089088;28;20247;-64
2021/12/17 00:55:53;;;;;;;16.83;12.57;;;;;;;4.05;100.00;100228.53;5085660;28;20269;-64
2021/12/17 00:58:19;;;;;;;14.30;10.83;;;;;;;4.07;100.00;100231.97;5075616;28;20219;-64
2021/12/17 01:00:46;;;;;;;18.80;12.30;;;;;;;4.06;100.00;100226.75;5075839;28;20212;-64
2021/12/17 01:03:13;;;;;;;15.83;10.83;;;;;;;4.07;100.00;100225.88;5075431;28;20786;-64
2021/12/17 01:05:41;;;;;;;17.33;11.77;;;;;;;4.08;100.00;100223.25;5071692;28;20239;-64
2021/12/17 01:08:08;;;;;;;17.33;11.87;;;;;;;4.08;100.00;100212.78;5074302;28;20574;-64
2021/12/17 01:10:37;;;;;;;18.10;11.47;;;;;;;4.06;100.00;100213.66;5074983;28;20216;-64
2021/12/17 01:13:06;;;;;;;16.00;11.83;;;;;;;4.11;100.00;100211.88;5075479;28;20218;-64
2021/12/17 01:15:33;;;;;;;16.13;11.57;;;;;;;4.11;100.00;100207.53;5072225;28;20223;-64
2021/12/17 01:18:06;;;;;;;17.23;12.10;;;;;;;4.14;100.00;100219.69;5075357;28;20585;-64
2021/12/17 01:20:55;;;;;;;16.87;12.13;;;;;;;4.11;100.00;100228.47;5075360;28;20220;-64
2021/12/17 01:23:57;;;;;;;15.13;11.50;;;;;;;4.14;100.00;100233.66;5075096;28;20216;-64
2021/12/17 01:41:02;;;;;;;17.93;11.63;;;;;;;4.16;100.00;100246.72;5032487;28;20220;-64
2021/12/17 01:43:35;;;;;;;13.77;10.63;;;;;;;4.15;100.00;100245.84;5074063;28;20217;-64
2021/12/17 01:46:04;;;;;;;14.03;10.60;;;;;;;4.16;100.00;100252.81;5074743;28;20244;-63
2021/12/17 01:48:38;;;;;;;17.37;11.83;;;;;;;4.12;100.00;100266.81;5074467;28;20685;-63
2021/12/17 01:56:51;;;;;;;17.07;11.30;;;;;;;4.01;100.00;100247.75;5072479;28;20218;-63
2021/12/17 01:59:23;;;;;;;15.90;11.57;;;;;;;4.03;100.00;100243.34;5065903;28;20266;-63
2021/12/17 02:01:53;;;;;;;15.83;11.70;;;;;;;4.05;100.00;100233.75;5072823;28;20592;-63
2021/12/17 02:04:20;;;;;;;15.03;11.33;;;;;;;4.08;100.00;100238.94;5072118;28;20261;-64
2021/12/17 02:06:47;;;;;;;16.57;11.77;;;;;;;4.12;100.00;100243.28;5073986;28;20247;-64
2021/12/17 02:09:46;;;;;;;16.63;12.13;;;;;;;4.17;100.00;100241.44;5073488;28;20230;-64
2021/12/17 02:29:31;;;;;;;17.83;12.50;;;;;;;4.29;100.00;100211.69;5128350;28;20260;-63
2021/12/17 02:32:01;;;;;;;17.27;11.53;;;;;;;4.33;100.00;100214.25;5127116;28;20218;-63
2021/12/17 02:34:43;;;;;;;16.90;12.53;;;;;;;4.32;100.00;100207.28;5125544;28;20262;-64
2021/12/17 02:37:14;;;;;;;20.10;12.50;;;;;;;4.29;100.00;100209.06;5126678;27;20224;-63
2021/12/17 02:40:00;;;;;;;20.13;13.03;;;;;;;4.29;100.00;100204.66;5116588;27;20213;-63
2021/12/17 02:42:50;;;;;;;18.23;12.53;;;;;;;4.32;100.00;100202.03;5126362;28;20233;-63
2021/12/17 02:45:35;;;;;;;19.63;13.77;;;;;;;4.29;100.00;100196.81;5126903;27;20213;-64
2021/12/17 02:48:07;;;;;;;15.50;11.93;;;;;;;4.21;100.00;100190.81;5125035;28;20245;-63
2021/12/17 02:50:35;;;;;;;19.97;14.17;;;;;;;4.28;100.00;100187.25;5128242;27;20216;-64
2021/12/17 02:53:07;;;;;;;18.40;12.83;;;;;;;4.26;100.00;100190.75;5126196;27;20214;-63
2021/12/17 02:55:37;;;;;;;17.27;12.47;;;;;;;4.26;100.00;100196.88;5126995;28;20241;-63
2021/12/17 02:58:05;;;;;;;19.70;13.33;;;;;;;4.27;100.00;100177.66;5125262;28;20235;-63
2021/12/17 03:00:33;;;;;;;19.37;13.73;;;;;;;4.28;100.00;100178.53;5126303;27;20218;-63
2021/12/17 03:03:02;;;;;;;19.00;12.87;;;;;;;4.28;100.00;100184.63;5126426;27;20324;-63
2021/12/17 03:05:29;;;;;;;18.33;12.70;;;;;;;4.35;100.00;100181.03;5123924;27;20216;-63
2021/12/17 03:07:56;;;;;;;18.00;13.60;;;;;;;4.39;100.00;100182.75;5126468;28;20205;-63
2021/12/17 03:10:23;;;;;;;21.80;15.40;;;;;;;4.37;100.00;100176.69;5127803;27;20218;-63
2021/12/17 03:12:55;;;;;;;22.07;16.17;;;;;;;4.37;100.00;100181.91;5126690;27;20210;-63
2021/12/17 03:15:31;;;;;;;20.57;14.47;;;;;;;4.38;100.00;100174.91;5126662;28;20618;-63
2021/12/17 03:23:33;;;;;;;19.70;14.27;;;;;;;4.54;100.00;100182.56;5124984;28;20244;-63
2021/12/17 03:26:01;;;;;;;18.60;13.63;;;;;;;4.56;100.00;100186.03;5127358;27;20278;-63
2021/12/17 03:28:29;;;;;;;18.30;13.33;;;;;;;4.59;100.00;100188.59;5127192;27;20207;-63
2021/12/17 03:30:55;;;;;;;18.17;12.43;;;;;;;4.62;100.00;100185.94;5125056;28;20222;-63
2021/12/17 03:33:22;;;;;;;20.17;14.13;;;;;;;4.62;100.00;100191.19;5122286;27;20708;-64
2021/12/17 03:35:49;;;;;;;18.10;12.97;;;;;;;4.60;100.00;100187.72;5113285;28;20218;-63
2021/12/17 03:38:16;;;;;;;18.37;13.10;;;;;;;4.56;100.00;100196.50;5113473;28;20224;-63
2021/12/17 03:40:44;;;;;;;18.37;13.30;;;;;;;4.55;100.00;100189.53;5112718;28;20272;-63
2021/12/17 03:43:12;;;;;;;19.00;12.90;;;;;;;4.59;100.00;100198.22;5109362;28;20247;-63
2021/12/17 03:45:41;;;;;;;18.10;12.37;;;;;;;4.61;100.00;100202.56;5110444;27;20302;-64
2021/12/17 03:48:08;;;;;;;16.13;11.90;;;;;;;4.65;100.00;100195.53;5112151;28;20220;-64
2021/12/17 03:50:36;;;;;;;16.53;11.83;;;;;;;4.65;100.00;100196.38;5110332;28;20682;-63
2021/12/17 03:53:03;;;;;;;16.53;12.17;;;;;;;4.68;100.00;100192.84;5109270;28;20220;-63
2021/12/17 03:55:29;;;;;;;16.73;12.43;;;;;;;4.71;100.00;100201.53;5111915;28;20211;-63
2021/12/17 03:57:58;;;;;;;17.27;13.03;;;;;;;4.69;100.00;100205.06;5112000;28;20218;-63
2021/12/17 04:00:25;;;;;;;16.90;12.83;;;;;;;4.64;100.00;100197.25;5110780;28;20219;-63
2021/12/17 04:02:53;;;;;;;18.47;13.03;;;;;;;4.65;100.00;100200.75;5112904;28;20247;-64
2021/12/17 04:05:19;;;;;;;17.93;12.83;;;;;;;4.64;100.00;100205.13;5112900;28;20242;-63
2021/12/17 04:07:46;;;;;;;17.73;12.33;;;;;;;4.63;100.00;100203.38;5110913;28;20222;-64
2021/12/17 04:10:12;;;;;;;16.03;12.20;;;;;;;4.69;100.00;100198.06;5110940;28;20214;-63
2021/12/17 04:12:48;;;;;;;15.87;11.20;;;;;;;4.76;100.00;100193.63;5110519;28;20691;-63
2021/12/17 04:15:15;;;;;;;13.80;11.60;;;;;;;4.80;100.00;100190.06;5111568;28;20326;-63
2021/12/17 04:17:45;;;;;;;16.73;11.73;;;;;;;4.81;100.00;100186.56;5111411;28;20223;-64
2021/12/17 04:20:14;;;;;;;16.73;12.10;;;;;;;4.84;100.00;100187.38;5108813;28;20628;-64
2021/12/17 04:22:40;;;;;;;16.33;11.93;;;;;;;4.90;100.00;100192.53;5109910;28;21189;-64
2021/12/17 04:25:07;;;;;;;14.03;10.77;;;;;;;4.90;100.00;100200.38;5111315;28;20232;-64
2021/12/17 04:27:34;;;;;;;15.70;11.87;;;;;;;4.95;100.00;100195.13;5111352;28;20215;-63
2021/12/17 04:30:00;;;;;;;17.20;12.30;;;;;;;4.92;100.00;100190.78;5108960;28;20211;-63
2021/12/17 04:32:27;;;;;;;14.93;11.80;;;;;;;4.92;100.00;100180.28;5104834;28;20586;-63
2021/12/17 04:34:53;;;;;;;17.97;12.27;;;;;;;4.93;100.00;100173.28;5111154;28;20225;-63
2021/12/17 04:37:21;;;;;;;14.33;11.37;;;;;;;4.98;100.00;100164.47;5109442;28;20214;-63
2021/12/17 04:39:48;;;;;;;16.70;12.60;;;;;;;5.00;100.00;100157.47;5109084;28;20211;-63
2021/12/17 04:42:19;;;;;;;15.37;10.97;;;;;;;5.03;100.00;100157.44;5108677;28;20240;-63
2021/12/17 04:44:52;;;;;;;15.03;11.00;;;;;;;5.05;100.00;100160.88;5110115;28;20217;-63
2021/12/17 04:58:15;;;;;;;12.83;9.83;;;;;;;5.05;100.00;100166.13;5078821;28;20578;-63
2021/12/17 05:00:41;;;;;;;15.47;10.87;;;;;;;5.13;100.00;100169.47;5110391;28;20214;-63
2021/12/17 05:03:08;;;;;;;14.40;10.90;;;;;;;4.99;100.00;100176.69;5108804;28;20236;-63
2021/12/17 05:05:35;;;;;;;14.83;11.03;;;;;;;4.90;100.00;100163.72;5106490;28;20223;-63
2021/12/17 05:08:08;;;;;;;13.00;10.33;;;;;;;4.84;100.00;100171.66;5111767;28;20670;-63
2021/12/17 05:10:53;;;;;;;15.80;11.60;;;;;;;4.85;100.00;100165.56;5111575;28;20649;-63
2021/12/17 05:18:55;;;;;;;15.87;11.23;;;;;;;4.85;100.00;100156.81;5109998;28;20216;-63
2021/12/17 05:21:23;;;;;;;15.20;11.27;;;;;;;4.86;100.00;100156.81;5107675;28;20339;-63
2021/12/17 05:23:52;;;;;;;14.50;10.93;;;;;;;4.83;100.00;100159.44;5111150;28;20718;-64
2021/12/17 05:26:20;;;;;;;14.67;11.00;;;;;;;4.81;100.00;100171.72;5111147;28;20215;-63
2021/12/17 05:28:48;;;;;;;16.47;11.57;;;;;;;4.77;100.00;100164.78;5106794;28;20218;-63
2021/12/17 05:31:16;;;;;;;14.93;11.30;;;;;;;4.79;100.00;100156.91;5111267;28;20217;-63
2021/12/17 05:33:43;;;;;;;14.30;10.70;;;;;;;4.75;100.00;100142.97;5111022;28;20261;-63
2021/12/17 05:36:09;;;;;;;14.57;11.07;;;;;;;4.69;100.00;100145.69;5111308;28;20211;-63
2021/12/17 05:38:36;;;;;;;15.17;11.73;;;;;;;4.65;100.00;100157.09;5108073;28;20218;-63
2021/12/17 05:41:04;;;;;;;14.10;11.00;;;;;;;4.65;100.00;100149.22;5111254;28;20577;-64
2021/12/17 05:43:35;;;;;;;14.37;10.50;;;;;;;4.67;100.00;100154.44;5111162;28;20608;-63
2021/12/17 05:46:09;;;;;;;14.10;10.70;;;;;;;4.69;100.00;100150.03;5110954;28;20584;-63
2021/12/17 05:48:36;;;;;;;13.50;9.87;;;;;;;4.69;100.00;100153.53;5109803;28;20216;-64
2021/12/17 05:51:05;;;;;;;15.00;11.50;;;;;;;4.70;100.00;100162.28;5107629;28;20243;-64
2021/12/17 05:53:33;;;;;;;12.20;10.10;;;;;;;4.70;100.00;100154.44;5109782;28;20228;-64
2021/12/17 05:55:59;;;;;;;13.37;10.87;;;;;;;4.72;100.00;100148.28;5107960;28;20218;-63
2021/12/17 05:58:29;;;;;;;13.63;10.10;;;;;;;4.74;100.00;100149.13;5107950;28;20211;-63
2021/12/17 06:00:56;;;;;;;15.23;10.03;;;;;;;4.72;100.00;100143.03;5108102;28;20211;-63
2021/12/17 06:03:23;;;;;;;15.63;11.20;;;;;;;4.74;100.00;100143.88;5109460;28;20252;-63
2021/12/17 06:05:50;;;;;;;15.87;11.87;;;;;;;4.74;100.00;100151.75;5109095;28;20665;-63
2021/12/17 06:08:16;;;;;;;13.83;10.03;;;;;;;4.77;100.00;100148.22;5108431;28;20701;-63
2021/12/17 06:10:43;;;;;;;12.60;10.00;;;;;;;4.79;100.00;100151.66;5110802;28;20207;-63
2021/12/17 06:13:10;;;;;;;11.40;9.17;;;;;;;4.80;100.00;100149.03;5110756;28;20218;-63
2021/12/17 06:15:38;;;;;;;12.03;9.60;;;;;;;4.79;100.00;100156.91;5110748;28;20215;-63
2021/12/17 06:18:04;;;;;;;13.47;9.93;;;;;;;4.78;100.00;100150.81;5109591;28;20211;-63
2021/12/17 06:20:31;;;;;;;12.10;9.73;;;;;;;4.75;100.00;100158.69;5104794;28;20219;-64
2021/12/17 06:22:58;;;;;;;13.10;10.00;;;;;;;4.74;100.00;100170.06;5109178;28;20754;-63
2021/12/17 06:25:24;;;;;;;13.63;10.73;;;;;;;4.80;100.00;100183.09;5109263;28;20213;-63
2021/12/17 06:27:50;;;;;;;12.60;9.83;;;;;;;4.72;100.00;100182.34;5108293;28;20212;-63
2021/12/17 06:30:19;;;;;;;14.47;10.43;;;;;;;4.67;100.00;100184.16;5106324;28;20214;-63
2021/12/17 06:32:47;;;;;;;14.20;11.27;;;;;;;4.67;100.00;100188.50;5109088;28;20677;-63
2021/12/17 06:35:14;;;;;;;14.00;11.13;;;;;;;4.62;100.00;100180.72;5109366;28;20221;-63
2021/12/17 06:37:41;;;;;;;13.73;11.27;;;;;;;4.59;100.00;100172.88;5107986;28;20214;-63
2021/12/17 06:40:09;;;;;;;15.23;10.40;;;;;;;4.62;100.00;100179.84;5106183;28;20217;-64
2021/12/17 06:42:36;;;;;;;16.53;11.83;;;;;;;4.65;100.00;100170.19;5108889;28;20211;-63
2021/12/17 06:45:07;;;;;;;17.27;12.10;;;;;;;4.68;100.00;100178.00;5109164;28;20224;-63
2021/12/17 06:47:36;;;;;;;14.87;11.17;;;;;;;4.67;100.00;100181.53;5107393;28;20261;-63
2021/12/17 06:55:57;;;;;;;16.00;12.00;;;;;;;4.74;100.00;100190.16;5109176;28;20223;-63
2021/12/17 07:01:15;;;;;;;13.97;10.90;;;;;;;4.79;100.00;100204.94;5101709;28;20211;-64
2021/12/17 07:06:48;;;;;;;16.10;11.80;;;;;;;4.81;100.00;100203.16;5104508;28;20256;-63
2021/12/17 07:09:54;;;;;;;16.00;11.57;;;;;;;4.80;100.00;100198.81;5111207;28;20289;-63
2021/12/17 07:18:31;;;;;;;12.67;9.33;;;;;;;4.86;100.00;100203.97;5094208;28;20636;-63
2021/12/17 07:24:05;;;;;;;13.30;10.20;;;;;;;4.83;100.00;100216.25;5056310;28;20239;-63
2021/12/17 07:32:20;;;;;;;13.40;10.17;;;;;;;4.56;100.00;100208.72;5102396;28;20225;-63
2021/12/17 07:35:02;;;;;;;13.13;10.43;;;;;;;4.29;100.00;100211.69;5112417;28;20643;-63
2021/12/17 07:40:14;;;;;;;13.53;10.50;;;;;;;3.63;100.00;100215.84;5110324;28;20675;-63
2021/12/17 07:42:40;;;;;;;13.70;9.53;;;;;;;3.43;100.00;100215.13;5110507;27;20218;-64
2021/12/17 07:45:07;;;;;;;12.43;9.40;;;;;;;3.28;100.00;100215.25;5109813;28;20216;-64
2021/12/17 07:47:33;;;;;;;12.27;9.37;;;;;;;3.09;100.00;100207.53;5112211;28;20211;-63
2021/12/17 07:50:00;;;;;;;12.67;9.07;;;;;;;2.98;100.00;100205.00;5111806;28;20221;-64
2021/12/17 07:52:26;;;;;;;11.67;8.93;;;;;;;2.92;100.00;100204.16;5112338;28;20574;-63
2021/12/17 07:54:52;;;;;;;13.90;9.60;;;;;;;2.87;100.00;100205.97;5108952;28;20215;-64
2021/12/17 07:57:20;;;;;;;11.70;9.27;;;;;;;2.84;100.00;100211.19;5111734;27;20686;-63
2021/12/17 07:59:47;;;;;;;12.93;9.53;;;;;;;2.88;100.00;100205.91;5112055;28;20207;-63
2021/12/17 08:02:13;;;;;;;12.83;9.77;;;;;;;2.94;100.00;100203.28;5111224;28;20230;-63
2021/12/17 08:04:40;;;;;;;10.80;9.07;;;;;;;2.97;100.00;100213.72;5106769;28;20254;-63
2021/12/17 08:07:06;;;;;;;12.67;9.17;;;;;;;2.99;100.00;100222.41;5113140;28;20210;-63
2021/12/17 08:09:33;;;;;;;13.60;9.73;;;;;;;3.06;100.00;100218.88;5112657;27;20694;-63
2021/12/17 08:12:00;;;;;;;13.23;10.07;;;;;;;3.17;100.00;100222.28;5110152;28;20215;-63
2021/12/17 08:14:29;;;;;;;16.53;11.47;;;;;;;3.21;100.00;100218.78;5112594;28;20252;-63
2021/12/17 08:17:02;;;;;;;14.50;11.47;;;;;;;3.28;100.00;100220.47;5111300;28;20697;-63
2021/12/17 08:25:11;;;;;;;16.73;12.80;;;;;;;3.43;100.00;100222.97;5064934;28;20614;-63
2021/12/17 08:27:48;;;;;;;17.00;13.00;;;;;;;3.50;100.00;100215.94;5111036;28;20249;-64
2021/12/17 08:30:24;;;;;;;17.63;12.20;;;;;;;3.52;100.00;100220.28;5108344;28;20753;-63
2021/12/17 08:32:50;;;;;;;16.27;12.53;;;;;;;3.56;100.00;100221.97;5111133;28;20699;-64
2021/12/17 08:35:17;;;;;;;17.67;14.43;;;;;;;3.62;100.00;100221.94;5110539;28;20225;-64
2021/12/17 08:37:44;;;;;;;16.60;13.40;;;;;;;3.68;100.00;100231.47;5105760;28;20293;-63
2021/12/17 08:40:11;;;;;;;18.60;13.80;;;;;;;3.67;100.00;100222.75;5109945;28;20220;-63
2021/12/17 08:42:38;;;;;;;17.40;13.37;;;;;;;3.72;100.00;100233.19;5110212;28;20238;-63
2021/12/17 08:45:06;;;;;;;17.00;13.77;;;;;;;3.77;100.00;100221.81;5109108;28;20244;-63
2021/12/17 08:47:36;;;;;;;17.77;12.57;;;;;;;3.77;100.00;100232.28;5099563;28;20669;-64
2021/12/17 08:50:06;;;;;;;15.90;11.67;;;;;;;3.83;100.00;100236.56;5099100;28;20268;-64
2021/12/17 08:52:32;;;;;;;17.07;12.37;;;;;;;3.84;100.00;100228.72;5112155;28;20225;-64
2021/12/17 08:54:59;;;;;;;15.57;11.43;;;;;;;3.81;100.00;100230.50;5112978;28;20216;-64
2021/12/17 08:57:25;;;;;;;14.93;11.23;;;;;;;3.84;100.00;100223.47;5110704;28;20637;-64
2021/12/17 08:59:55;;;;;;;13.67;10.57;;;;;;;3.89;100.00;100226.94;5112072;28;20211;-63
2021/12/17 09:02:22;;;;;;;15.93;10.67;;;;;;;3.91;100.00;100225.16;5112582;28;20234;-64
2021/12/17 09:04:50;;;;;;;15.83;10.70;;;;;;;3.96;100.00;100225.97;5112684;28;20243;-63
2021/12/17 09:07:16;;;;;;;15.13;10.97;;;;;;;3.99;100.00;100228.59;5111098;28;20218;-63
2021/12/17 09:09:45;;;;;;;15.13;10.73;;;;;;;4.01;100.00;100226.81;5113292;28;20216;-63
2021/12/17 09:12:12;;;;;;;13.77;11.07;;;;;;;4.06;100.00;100230.25;5113525;28;20217;-63
2021/12/17 09:14:38;;;;;;;13.93;10.50;;;;;;;4.06;100.00;100224.13;5113542;28;20220;-63
2021/12/17 09:17:05;;;;;;;15.00;10.67;;;;;;;4.20;100.00;100228.34;5113325;28;20214;-64
2021/12/17 09:19:32;;;;;;;12.60;9.57;;;;;;;4.30;100.00;100224.75;5113342;28;20578;-63
2021/12/17 09:22:00;;;;;;;12.60;9.43;;;;;;;4.45;100.00;100221.94;5113162;28;20235;-63
2021/12/17 09:24:27;;;;;;;11.33;9.40;;;;;;;4.51;100.00;100216.63;5111125;28;20318;-63
2021/12/17 09:26:54;;;;;;;11.13;8.77;;;;;;;4.58;100.00;100223.53;5112942;28;20591;-64
2021/12/17 09:29:20;;;;;;;10.90;8.47;;;;;;;4.60;100.00;100224.41;5112995;28;20219;-63
2021/12/17 09:31:47;;;;;;;12.47;8.77;;;;;;;4.57;100.00;100234.91;5112186;28;20672;-64
2021/12/17 09:34:13;;;;;;;11.87;8.70;;;;;;;4.63;100.00;100232.19;5113054;28;20212;-64
2021/12/17 09:36:40;;;;;;;10.10;8.70;;;;;;;4.67;100.00;100225.16;5113007;28;20219;-64
2021/12/17 09:39:08;;;;;;;12.80;9.33;;;;;;;4.72;100.00;100229.47;5112477;28;20216;-63
2021/12/17 09:41:34;;;;;;;12.33;9.10;;;;;;;4.77;100.00;100227.66;5112681;28;20215;-64
2021/12/17 09:44:01;;;;;;;12.27;10.13;;;;;;;4.84;100.00;100234.53;5112272;28;20231;-63
2021/12/17 09:46:28;;;;;;;13.10;9.77;;;;;;;4.87;100.00;100234.50;5112686;28;20207;-64
2021/12/17 09:48:55;;;;;;;10.00;8.50;;;;;;;4.95;100.00;100237.88;5112660;28;20215;-64
2021/12/17 09:51:22;;;;;;;10.43;9.00;;;;;;;4.97;100.00;100230.88;5111045;28;20634;-64
2021/12/17 09:53:49;;;;;;;11.83;9.23;;;;;;;4.98;100.00;100227.38;5112758;28;20221;-64
2021/12/17 09:56:17;;;;;;;11.27;8.97;;;;;;;5.09;100.00;100228.09;5112485;28;20261;-65
2021/12/17 09:58:44;;;;;;;10.90;8.50;;;;;;;5.06;100.00;100225.50;5112477;28;20595;-64
2021/12/17 10:01:10;;;;;;;10.00;8.53;;;;;;;5.06;100.00;100233.38;5109933;28;20592;-64
2021/12/17 10:03:37;;;;;;;10.67;8.93;;;;;;;5.10;100.00;100232.44;5103253;28;20252;-65
2021/12/17 10:06:03;;;;;;;11.00;8.33;;;;;;;5.14;100.00;100222.78;5112220;28;20224;-65
2021/12/17 10:08:30;;;;;;;10.77;8.67;;;;;;;5.26;100.00;100228.69;5112374;28;20255;-65
2021/12/17 10:10:59;;;;;;;10.40;8.37;;;;;;;5.34;100.00;100229.47;5098965;28;20223;-65
2021/12/17 10:13:29;;;;;;;9.17;7.70;;;;;;;5.37;100.00;100221.53;5112463;28;20209;-65
2021/12/17 10:15:58;;;;;;;10.37;8.17;;;;;;;5.41;100.00;100223.22;5112472;28;20219;-65
2021/12/17 10:18:37;;;;;;;9.80;8.23;;;;;;;5.35;100.00;100217.19;5110431;28;20214;-65
2021/12/17 10:21:05;;;;;;;10.93;8.00;;;;;;;5.35;100.00;100218.09;5112359;28;20209;-64
2021/12/17 10:23:33;;;;;;;9.93;8.00;;;;;;;5.45;100.00;100229.28;5112113;28;20248;-64
2021/12/17 10:26:01;;;;;;;9.30;7.40;;;;;;;5.55;100.00;100230.91;5111949;28;20214;-65
2021/12/17 10:28:30;;;;;;;9.23;7.40;;;;;;;5.66;100.00;100239.44;5112140;28;20210;-64
2021/12/17 10:30:57;;;;;;;10.57;8.07;;;;;;;5.70;100.00;100223.63;5112150;28;20237;-64
2021/12/17 10:33:27;;;;;;;9.73;7.83;;;;;;;5.85;100.00;100236.53;5111952;28;20680;-66
2021/12/17 10:35:57;;;;;;;9.97;7.60;;;;;;;5.88;100.00;100239.09;5111892;28;20643;-65
2021/12/17 10:38:26;;;;;;;9.33;7.80;;;;;;;5.96;100.00;100239.84;5112205;28;20231;-65
2021/12/17 10:40:59;;;;;;;8.80;7.57;;;;;;;6.01;100.00;100232.75;5112220;28;20251;-65
2021/12/17 10:43:31;;;;;;;8.37;6.80;;;;;;;6.03;100.00;100236.19;5111074;28;20239;-65
2021/12/17 10:46:05;;;;;;;9.93;7.57;;;;;;;5.99;100.00;100226.63;5116287;28;20216;-66
2021/12/17 10:48:47;;;;;;;8.67;7.30;;;;;;;5.97;100.00;100225.81;5116369;28;20602;-65
2021/12/17 10:51:28;;;;;;;10.80;7.80;;;;;;;6.00;100.00;100228.41;5116111;28;20318;-65
2021/12/17 10:53:56;;;;;;;10.40;7.37;;;;;;;6.11;100.00;100228.19;5099945;28;20296;-65
2021/12/17 10:56:24;;;;;;;10.37;7.67;;;;;;;6.18;100.00;100228.03;5115743;28;20212;-65
2021/12/17 10:58:55;;;;;;;9.57;6.97;;;;;;;6.08;100.00;100223.88;5115924;28;20214;-65
2021/12/17 11:01:32;;;;;;;9.17;7.13;;;;;;;6.00;100.00;100224.88;5115699;28;20247;-65
2021/12/17 11:04:11;;;;;;;10.90;8.20;;;;;;;5.94;100.00;100225.00;5115785;27;20241;-65
2021/12/17 11:06:50;;;;;;;9.73;7.83;;;;;;;5.89;100.00;100222.47;5115864;28;20206;-65
2021/12/17 11:09:39;;;;;;;10.07;7.77;;;;;;;5.93;100.00;100233.78;5112804;28;20223;-65
2021/12/17 11:12:28;;;;;;;10.73;8.27;;;;;;;6.00;100.00;100220.53;5101351;28;20238;-65
2021/12/17 11:15:05;;;;;;;10.17;7.43;;;;;;;6.17;100.00;100223.69;5115610;28;20228;-65
2021/12/17 11:17:33;;;;;;;9.77;7.43;;;;;;;6.17;100.00;100215.81;5113500;28;20208;-65
2021/12/17 11:20:04;;;;;;;9.80;7.50;;;;;;;6.18;100.00;100209.66;5115603;28;20216;-64
2021/12/17 11:22:31;;;;;;;7.77;6.07;;;;;;;6.13;100.00;100205.38;5115691;28;20237;-65
2021/12/17 11:25:00;;;;;;;8.80;6.77;;;;;;;6.05;100.00;100208.16;5115475;28;20237;-66
2021/12/17 11:27:27;;;;;;;9.13;7.17;;;;;;;6.04;100.00;100200.31;5115428;27;20209;-65
2021/12/17 11:29:55;;;;;;;7.93;6.33;;;;;;;6.00;100.00;100207.41;5115319;28;20220;-65
2021/12/17 11:32:22;;;;;;;9.53;6.73;;;;;;;6.01;100.00;100200.38;5115411;28;20213;-65
2021/12/17 11:34:49;;;;;;;8.87;7.23;;;;;;;6.01;100.00;100206.50;5115353;28;20216;-65
2021/12/17 11:37:17;;;;;;;8.40;6.93;;;;;;;6.12;100.00;100208.91;5113443;28;20566;-65
2021/12/17 11:39:49;;;;;;;10.03;7.13;;;;;;;6.09;100.00;100209.84;5115252;28;20231;-65
2021/12/17 11:42:30;;;;;;;7.90;6.73;;;;;;;6.12;100.00;100201.88;5115222;28;20221;-65
2021/12/17 11:47:38;;;;;;;7.07;5.87;;;;;;;6.24;100.00;100201.66;5114396;28;20218;-65
2021/12/17 11:50:09;;;;;;;8.63;6.53;;;;;;;6.38;100.00;100191.78;5114965;28;20212;-65
2021/12/17 11:52:40;;;;;;;8.53;6.73;;;;;;;6.43;100.00;100195.19;5114985;28;20228;-65
2021/12/17 11:55:25;;;;;;;8.70;6.87;;;;;;;6.50;100.00;100185.38;5114080;28;21981;-65
2021/12/17 11:57:53;;;;;;;8.73;6.70;;;;;;;6.43;100.00;100192.56;5114950;28;20217;-65
2021/12/17 12:00:25;;;;;;;8.70;7.10;;;;;;;6.50;100.00;100188.03;5114744;28;20670;-65
2021/12/17 12:02:54;;;;;;;9.73;7.07;;;;;;;6.53;100.00;100191.44;5110225;28;20582;-66
2021/12/17 12:05:36;;;;;;;8.67;6.73;;;;;;;6.55;100.00;100183.53;5111834;28;20708;-66
2021/12/17 12:08:26;;;;;;;9.27;7.03;;;;;;;6.49;100.00;100187.19;5108172;28;20557;-66
2021/12/17 12:11:11;;;;;;;8.93;6.97;;;;;;;6.61;100.00;100179.03;5103012;28;20217;-65
2021/12/17 12:13:40;;;;;;;8.93;7.03;;;;;;;6.56;100.00;100178.25;5113839;28;20297;-62
2021/12/17 12:16:08;;;;;;;8.57;6.63;;;;;;;6.66;100.00;100187.66;5106308;28;20391;-65
2021/12/17 12:18:47;;;;;;;10.13;7.33;;;;;;;6.63;100.00;100177.22;5113302;28;20209;-65
2021/12/17 12:21:17;;;;;;;9.53;7.13;;;;;;;6.81;100.00;100191.72;5113201;28;20294;-63
2021/12/17 12:24:10;;;;;;;8.47;7.00;;;;;;;6.79;100.00;100189.13;5112013;28;20641;-65
2021/12/17 12:26:40;;;;;;;8.40;6.87;;;;;;;6.71;100.00;100179.72;5101170;28;20214;-62
2021/12/17 12:29:27;;;;;;;10.20;7.40;;;;;;;6.80;100.00;100175.13;5108127;28;20330;-62
2021/12/17 12:32:13;;;;;;;9.83;7.47;;;;;;;6.85;100.00;100167.13;5109887;28;20301;-64
2021/12/17 12:34:43;;;;;;;8.07;6.37;;;;;;;6.75;100.00;100161.19;5101916;28;20214;-65
2021/12/17 12:37:18;;;;;;;9.10;6.90;;;;;;;6.78;100.00;100157.66;5108661;28;20241;-63
2021/12/17 12:40:17;;;;;;;8.93;6.50;;;;;;;6.65;100.00;100156.19;5105008;28;20224;-63
2021/12/17 12:42:56;;;;;;;9.17;6.97;;;;;;;6.80;100.00;100161.97;5102231;28;20684;-63
2021/12/17 12:45:25;;;;;;;10.07;6.70;;;;;;;6.86;100.00;100164.47;5109882;28;20237;-63
2021/12/17 12:47:58;;;;;;;8.30;6.47;;;;;;;6.87;100.00;100160.94;5105899;28;20221;-63
2021/12/17 12:50:27;;;;;;;8.20;6.70;;;;;;;6.91;100.00;100157.31;5108751;28;20218;-63
2021/12/17 12:52:57;;;;;;;7.80;6.53;;;;;;;6.90;100.00;100152.97;5107881;28;20263;-63
2021/12/17 12:55:27;;;;;;;7.57;5.90;;;;;;;6.81;100.00;100153.19;5115387;27;20242;-63
2021/12/17 12:58:02;;;;;;;8.40;6.53;;;;;;;6.78;100.00;100150.59;5107029;28;20214;-63
2021/12/17 13:00:31;;;;;;;9.00;6.73;;;;;;;6.86;100.00;100151.31;5118266;27;20697;-63
2021/12/17 13:03:01;;;;;;;8.37;6.20;;;;;;;6.90;100.00;100155.59;5115036;27;20225;-63
2021/12/17 13:05:28;;;;;;;8.03;5.87;;;;;;;7.03;100.00;100154.41;5108405;28;20258;-64
2021/12/17 13:07:57;;;;;;;9.33;6.93;;;;;;;7.16;100.00;100152.38;5108477;27;20202;-63
2021/12/17 13:10:26;;;;;;;9.20;6.27;;;;;;;7.28;100.00;100168.75;5117742;27;20224;-63
2021/12/17 13:13:02;;;;;;;8.83;6.43;;;;;;;7.27;100.00;100166.97;5112121;28;20213;-65
2021/12/17 13:15:39;;;;;;;8.73;6.10;;;;;;;7.44;100.00;100173.59;5117841;27;20217;-63
2021/12/17 13:21:17;;;;;;;8.13;6.10;;;;;;;7.60;100.00;100156.50;5108987;28;20758;-63
2021/12/17 13:23:50;;;;;;;7.53;6.40;;;;;;;7.59;100.00;100159.19;5098425;28;20303;-63
2021/12/17 13:26:18;;;;;;;7.90;5.93;;;;;;;7.54;100.00;100155.81;5107715;28;20265;-63
2021/12/17 13:28:54;;;;;;;7.20;5.90;;;;;;;7.49;100.00;100155.94;5105638;28;20702;-63
2021/12/17 13:31:41;;;;;;;7.97;6.43;;;;;;;7.39;100.00;100143.88;5106647;28;20209;-63
2021/12/17 13:34:14;;;;;;;7.53;6.47;;;;;;;7.24;100.00;100154.78;5108209;28;20213;-63
2021/12/17 13:36:51;;;;;;;8.50;6.50;;;;;;;7.22;100.00;100148.69;5104752;28;20221;-64
2021/12/17 13:39:20;;;;;;;8.27;6.43;;;;;;;7.27;100.00;100140.69;5107556;28;20218;-63